createdAt,value
2019-03-18T00:01:36.006Z,4.43
2019-03-18T00:06:39.515Z,7.70
2019-03-18T00:11:42.976Z,7.90
2019-03-18T00:16:46.472Z,8.43
2019-03-18T00:21:49.890Z,8.70
2019-03-18T00:26:53.468Z,9.63
2019-03-18T00:31:56.893Z,6.33
2019-03-18T00:37:00.341Z,6.97
2019-03-18T00:42:03.885Z,6.23
2019-03-18T00:47:07.309Z,6.13
2019-03-18T00:52:10.736Z,9.27
2019-03-18T00:57:14.140Z,4.73
2019-03-18T01:02:17.642Z,6.00
2019-03-18T01:07:21.119Z,6.53
2019-03-18T01:12:24.533Z,7.93
2019-03-18T01:17:27.959Z,6.87
2019-03-18T01:22:31.385Z,6.97
2019-03-18T01:27:34.804Z,7.17
2019-03-18T01:32:38.217Z,5.03
2019-03-18T01:37:41.651Z,10.37
2019-03-18T01:42:45.154Z,8.07
2019-03-18T01:47:48.547Z,6.00
2019-03-18T01:52:51.974Z,4.97
2019-03-18T01:57:55.470Z,6.50
2019-03-18T02:02:58.933Z,9.60
2019-03-18T02:08:02.441Z,9.87
2019-03-18T02:13:05.856Z,7.27
2019-03-18T02:18:09.286Z,5.80
2019-03-18T02:23:12.775Z,9.20
2019-03-18T02:28:16.164Z,7.53
2019-03-18T02:33:19.590Z,7.03
2019-03-18T02:38:23.043Z,7.57
2019-03-18T02:43:26.464Z,10.43
2019-03-18T02:48:29.879Z,8.50
2019-03-18T02:53:33.352Z,7.53
2019-03-18T02:58:36.792Z,10.17
2019-03-18T03:03:40.230Z,10.70
2019-03-18T03:08:43.880Z,13.07
2019-03-18T03:13:47.312Z,11.83
2019-03-18T03:18:51.001Z,23.17
2019-03-18T03:23:54.431Z,20.17
2019-03-18T03:28:57.851Z,18.07
2019-03-18T03:34:01.303Z,25.60
2019-03-18T03:39:06.582Z,24.17
2019-03-18T03:44:12.085Z,21.87
2019-03-18T03:49:15.518Z,21.57
2019-03-18T03:54:19.662Z,15.63
2019-03-18T03:59:23.349Z,14.27
2019-03-18T04:04:26.773Z,15.20
2019-03-18T04:09:30.225Z,20.13
2019-03-18T04:14:33.657Z,16.83
2019-03-18T04:19:37.107Z,20.83
2019-03-18T04:24:40.537Z,23.53
2019-03-18T04:29:44.000Z,15.23
2019-03-18T04:34:47.442Z,16.80
2019-03-18T04:39:50.896Z,18.03
2019-03-18T04:44:54.326Z,22.63
2019-03-18T04:49:57.770Z,18.93
2019-03-18T04:55:01.234Z,18.27
2019-03-18T05:00:08.102Z,15.07
2019-03-18T05:05:11.624Z,16.40
2019-03-18T05:10:15.067Z,20.57
2019-03-18T05:15:18.518Z,21.73
2019-03-18T05:20:21.966Z,16.47
2019-03-18T05:25:25.429Z,17.57
2019-03-18T05:30:28.880Z,13.47
2019-03-18T05:35:32.322Z,20.67
2019-03-18T05:40:35.775Z,15.80
2019-03-18T05:45:39.231Z,17.90
2019-03-18T05:50:42.653Z,15.17
2019-03-18T05:55:46.116Z,24.17
2019-03-18T06:00:49.826Z,25.30
2019-03-18T06:05:53.257Z,24.13
2019-03-18T06:10:56.767Z,29.13
2019-03-18T06:16:00.193Z,28.77
2019-03-18T06:21:03.634Z,29.87
2019-03-18T06:26:07.053Z,26.63
2019-03-18T06:31:10.567Z,29.73
2019-03-18T06:36:14.004Z,30.70
2019-03-18T06:41:17.433Z,26.20
2019-03-18T06:46:20.865Z,23.37
2019-03-18T06:51:24.309Z,21.50
2019-03-18T06:56:27.829Z,22.47
2019-03-18T07:01:31.295Z,24.77
2019-03-18T07:06:34.720Z,26.30
2019-03-18T07:11:38.195Z,19.90
2019-03-18T07:16:41.629Z,17.47
2019-03-18T07:21:47.347Z,22.80
2019-03-18T07:26:50.788Z,26.10
2019-03-18T07:31:54.229Z,21.00
2019-03-18T07:36:57.708Z,15.23
2019-03-18T07:42:01.191Z,10.73
2019-03-18T07:47:04.623Z,16.73
2019-03-18T07:52:08.116Z,18.67
2019-03-18T07:57:11.549Z,15.47
2019-03-18T08:02:14.969Z,15.00
2019-03-18T08:07:18.409Z,13.13
2019-03-18T08:12:21.854Z,10.60
2019-03-18T08:17:25.277Z,20.60
2019-03-18T08:22:28.704Z,12.70
2019-03-18T08:27:32.134Z,14.73
2019-03-18T08:32:35.545Z,18.87
2019-03-18T08:37:39.025Z,13.57
2019-03-18T08:42:42.465Z,23.00
2019-03-18T08:47:45.898Z,16.00
2019-03-18T08:52:49.335Z,13.23
2019-03-18T08:57:52.797Z,14.07
2019-03-18T09:02:56.537Z,15.23
2019-03-18T09:08:00.006Z,19.57
2019-03-18T09:13:03.436Z,12.53
2019-03-18T09:18:07.090Z,16.63
2019-03-18T09:23:10.526Z,12.47
2019-03-18T09:28:13.995Z,21.07
2019-03-18T09:33:17.409Z,13.37
2019-03-18T09:38:20.842Z,14.27
2019-03-18T09:43:24.272Z,21.33
2019-03-18T09:48:27.717Z,10.90
2019-03-18T09:53:31.221Z,9.10
2019-03-18T09:58:34.675Z,9.77
2019-03-18T10:03:38.103Z,14.40
2019-03-18T10:08:41.525Z,12.37
2019-03-18T10:13:44.980Z,5.80
2019-03-18T10:18:48.428Z,9.70
2019-03-18T10:23:51.858Z,13.30
2019-03-18T10:28:55.634Z,10.73
2019-03-18T10:33:59.040Z,9.17
2019-03-18T10:39:02.461Z,11.97
2019-03-18T10:44:05.915Z,8.57
2019-03-18T10:49:09.349Z,11.90
2019-03-18T10:54:13.194Z,12.13
2019-03-18T10:59:16.568Z,8.40
2019-03-18T11:04:20.009Z,9.43
2019-03-18T11:09:23.460Z,5.67
2019-03-18T11:14:26.873Z,9.03
2019-03-18T11:19:30.352Z,7.57
2019-03-18T11:24:33.808Z,10.00
2019-03-18T11:29:37.295Z,7.07
2019-03-18T11:34:40.715Z,9.67
2019-03-18T11:39:44.129Z,5.33
2019-03-18T11:44:47.548Z,6.00
2019-03-18T11:49:50.963Z,12.53
2019-03-18T11:54:54.390Z,6.57
2019-03-18T11:59:57.815Z,6.10
2019-03-18T12:05:01.227Z,12.40
2019-03-18T12:10:07.358Z,9.00
2019-03-18T12:15:13.319Z,6.63
2019-03-18T12:20:24.189Z,10.43
2019-03-18T12:25:22.286Z,10.67
2019-03-18T12:30:29.271Z,9.57
2019-03-18T12:35:32.707Z,5.70
2019-03-18T12:40:36.139Z,8.97
2019-03-18T12:45:39.647Z,6.80
2019-03-18T12:50:55.880Z,9.83
2019-03-18T12:55:48.199Z,9.37
2019-03-18T13:00:51.612Z,7.07
2019-03-18T13:05:55.038Z,6.07
2019-03-18T13:10:58.572Z,6.40
2019-03-18T13:16:02.043Z,9.80
2019-03-18T13:21:08.075Z,5.03
2019-03-18T13:26:10.603Z,3.13
2019-03-18T13:31:14.048Z,5.50
2019-03-18T13:36:17.472Z,5.30
2019-03-18T13:41:20.922Z,6.67
2019-03-18T13:46:24.440Z,9.17
2019-03-18T13:51:27.853Z,7.03
2019-03-18T13:56:31.267Z,12.67
2019-03-18T14:01:34.701Z,4.70
2019-03-18T14:06:38.858Z,10.00
2019-03-18T14:11:42.286Z,6.77
2019-03-18T14:16:45.711Z,7.37
2019-03-18T14:21:49.122Z,8.00
2019-03-18T14:26:52.705Z,9.80
2019-03-18T14:31:56.241Z,4.87
2019-03-18T14:36:59.684Z,5.63
2019-03-18T14:42:03.113Z,7.30
2019-03-18T14:47:06.555Z,9.43
2019-03-18T14:52:09.983Z,8.37
2019-03-18T14:57:13.432Z,6.23
2019-03-18T15:02:16.862Z,6.00
2019-03-18T15:07:20.322Z,6.10
2019-03-18T15:12:23.753Z,6.47
2019-03-18T15:17:27.163Z,5.47
2019-03-18T15:22:30.583Z,5.27
2019-03-18T15:27:34.006Z,4.90
2019-03-18T15:32:37.452Z,7.03
2019-03-18T15:37:40.980Z,6.27
2019-03-18T15:42:44.423Z,7.20
2019-03-18T15:47:47.821Z,9.37
2019-03-18T15:52:51.247Z,6.60
2019-03-18T15:57:54.666Z,8.57
2019-03-18T16:02:58.102Z,5.77
2019-03-18T16:08:01.605Z,4.33
2019-03-18T16:13:05.211Z,6.20
2019-03-18T16:18:08.643Z,12.47
2019-03-18T16:23:12.084Z,7.13
2019-03-18T16:28:15.538Z,14.63
2019-03-18T16:33:18.989Z,8.33
2019-03-18T16:38:22.473Z,5.87
2019-03-18T16:43:25.897Z,6.70
2019-03-18T16:48:29.378Z,9.83
2019-03-18T16:53:32.805Z,6.87
2019-03-18T16:58:36.215Z,5.37
2019-03-18T17:03:39.646Z,7.40
2019-03-18T17:08:43.074Z,9.70
2019-03-18T17:13:46.490Z,6.50
2019-03-18T17:18:49.916Z,7.20
2019-03-18T17:23:53.439Z,9.87
2019-03-18T17:28:56.881Z,10.63
2019-03-18T17:34:00.440Z,11.63
2019-03-18T17:39:05.379Z,12.90
2019-03-18T17:44:09.780Z,4.40
2019-03-18T17:49:13.289Z,6.83
2019-03-18T17:54:16.767Z,17.70
2019-03-18T17:59:20.304Z,16.57
2019-03-18T18:04:23.711Z,6.77
2019-03-18T18:09:27.158Z,5.47
2019-03-18T18:14:30.599Z,5.60
2019-03-18T18:19:34.047Z,14.07
2019-03-18T18:24:37.557Z,8.97
2019-03-18T18:29:41.078Z,20.97
2019-03-18T18:34:44.521Z,9.77
2019-03-18T18:39:47.987Z,5.30
2019-03-18T18:44:51.409Z,8.63
2019-03-18T18:49:54.853Z,9.77
2019-03-18T18:54:58.267Z,10.77
2019-03-18T19:00:01.697Z,6.30
2019-03-18T19:05:08.562Z,8.43
2019-03-18T19:10:17.253Z,7.47
2019-03-18T19:15:35.031Z,9.63
2019-03-18T19:20:38.484Z,4.07
2019-03-18T19:25:41.904Z,9.70
2019-03-18T19:30:45.346Z,3.10
2019-03-18T19:41:22.207Z,9.60
2019-03-18T19:46:25.606Z,4.43
2019-03-18T19:51:29.059Z,4.30
2019-03-18T19:57:30.506Z,10.37
2019-03-18T20:03:11.846Z,10.93
2019-03-18T20:08:15.281Z,6.27
2019-03-18T20:13:18.871Z,5.10
2019-03-18T20:18:22.456Z,9.53
2019-03-18T20:23:25.863Z,11.40
2019-03-18T20:28:29.273Z,11.10
2019-03-18T20:33:32.766Z,8.63
2019-03-18T20:38:36.124Z,9.47
2019-03-18T20:43:39.607Z,25.30
2019-03-18T20:48:43.144Z,18.93
2019-03-18T20:53:46.605Z,10.93
2019-03-18T20:58:50.170Z,12.80
2019-03-18T21:03:53.606Z,14.37
2019-03-18T21:08:57.085Z,12.57
2019-03-18T21:14:00.594Z,8.43
2019-03-18T21:19:04.950Z,7.70
2019-03-18T21:24:08.468Z,10.03
2019-03-18T21:29:11.985Z,17.53
2019-03-18T21:34:15.601Z,5.93
2019-03-18T21:39:19.079Z,7.77
2019-03-18T21:44:22.492Z,14.13
2019-03-18T21:49:25.944Z,7.73
2019-03-18T21:54:34.189Z,9.87
2019-03-18T21:59:34.536Z,12.63
2019-03-18T22:04:37.975Z,11.60
2019-03-18T22:09:41.765Z,8.13
2019-03-18T22:14:45.226Z,6.77
2019-03-18T22:19:48.746Z,9.00
2019-03-18T22:24:52.814Z,10.53
2019-03-18T22:29:56.794Z,6.77
2019-03-18T22:35:00.346Z,12.77
2019-03-18T22:40:25.179Z,9.57
2019-03-18T22:45:28.643Z,7.50
2019-03-18T22:50:32.073Z,10.33
2019-03-18T22:55:35.554Z,5.20
2019-03-18T23:00:46.403Z,13.90
2019-03-18T23:05:50.134Z,10.23
2019-03-18T23:10:53.670Z,9.47
2019-03-18T23:15:57.100Z,5.00
2019-03-18T23:21:00.692Z,7.27
2019-03-18T23:26:04.282Z,15.87
2019-03-18T23:31:07.789Z,10.53
2019-03-18T23:36:11.236Z,6.17
2019-03-18T23:41:15.555Z,5.97
2019-03-18T23:46:19.176Z,9.53
2019-03-18T23:51:22.761Z,6.10
2019-03-18T23:56:26.266Z,9.93
